Search for airport 
image banner adimage banner adimage banner ad
image banner ad

KMOD - Modesto City-Co-Harry Sham Fld

Located in Modesto, United States

ICAO - MOD, IATA - MOD

Data provided by Airmate  

General information

Coordinates: N37°37'33" W120°57'16"
Elevation is 99 feet MSL.
Magnetic variation is 16° East
View others Airports in California

Operational data

Special qualification required
Current time UTC:
Current local time:
Weather
METAR: KMOD 191253Z AUTO 13004KT 9SM CLR 04/04 A3002 RMK AO2 SLP164 T00390039
TAF: KMOD 191134Z 1912/2012 VRB05KT P6SM SKC FM192100 15006KT P6SM SCT250 FM201000 14010KT P6SM VCSH OVC090
View NOTAMs / SUP AIP / TFR affecting this airport [VIEW]
Communications frequencies: [VIEW]

Runways:

RWY identifierQFULength (ft)Width (ft)SurfaceLDA (ft)
10R124°3464100ASPH3464
28L304°3464100ASPH3464
10L124°5904150ASPH5904
28R304°5904150ASPH5904

Airport contact information

Address: Modesto United States

Satellite view of KMOD